Time;durP1;ratioP1;P1;durP2;ratioP2;P2;SDS_P1;SDS_P2;PMS_P1;PMS_P2;Temp;Humidity;BMP_temperature;BMP_pressure;BME280_temperature;BME280_humidity;BME280_pressure;Samples;Min_cycle;Max_cycle;Signal;HPM_P1;HPM_P2
2023/01/15 00:01:58;;;;;;;7.70;1.60;;;8.40;99.90;;;;;;5013874;28;94854;-74
2023/01/15 00:04:25;;;;;;;8.07;1.08;;;8.40;99.90;;;;;;4980807;28;97913;-74
2023/01/15 00:06:53;;;;;;;9.50;1.65;;;8.40;99.90;;;;;;5015231;28;92429;-75
2023/01/15 00:09:20;;;;;;;6.60;1.45;;;8.40;99.90;;;;;;5015248;28;92416;-75
2023/01/15 00:11:47;;;;;;;11.43;2.05;;;8.40;99.90;;;;;;5014887;28;93306;-75
2023/01/15 00:14:14;;;;;;;3.42;0.98;;;8.40;99.90;;;;;;5013629;28;93095;-75
2023/01/15 00:16:41;;;;;;;8.10;1.60;;;8.40;99.90;;;;;;5015506;28;92872;-75
2023/01/15 00:19:10;;;;;;;6.35;1.45;;;8.30;99.90;;;;;;5014054;28;91799;-75
2023/01/15 00:21:37;;;;;;;6.70;1.85;;;8.30;99.90;;;;;;5015025;28;93193;-75
2023/01/15 00:29:53;;;;;;;8.52;1.70;;;8.30;99.90;;;;;;4983848;28;93829;-75
2023/01/15 00:32:19;;;;;;;7.75;1.70;;;8.30;99.90;;;;;;5008688;28;94336;-74
2023/01/15 00:34:46;;;;;;;11.20;2.00;;;8.30;99.90;;;;;;5017025;28;93068;-74
2023/01/15 00:37:14;;;;;;;13.85;1.55;;;8.30;99.90;;;;;;5050611;27;92448;-74
2023/01/15 00:39:42;;;;;;;6.35;1.42;;;8.30;99.90;;;;;;5017118;28;92439;-74
2023/01/15 00:42:10;;;;;;;5.20;1.10;;;8.20;99.90;;;;;;4999981;28;95929;-74
2023/01/15 00:44:37;;;;;;;8.95;1.60;;;8.30;99.90;;;;;;5018426;28;92980;-74
2023/01/15 00:47:07;;;;;;;10.75;1.83;;;8.30;99.90;;;;;;5016951;28;92433;-74
2023/01/15 00:49:34;;;;;;;6.90;2.20;;;8.20;99.90;;;;;;5000390;28;93126;-74
2023/01/15 00:52:01;;;;;;;5.45;1.60;;;8.20;99.90;;;;;;4998573;28;96896;-74
2023/01/15 00:54:28;;;;;;;5.22;1.23;;;8.20;99.90;;;;;;5016764;28;94020;-74
2023/01/15 00:56:55;;;;;;;12.82;1.75;;;8.20;99.90;;;;;;5000372;28;92419;-74
2023/01/15 00:59:23;;;;;;;8.25;1.95;;;8.20;99.90;;;;;;5018181;28;92440;-74
2023/01/15 01:01:50;;;;;;;7.57;1.52;;;8.20;99.90;;;;;;4999915;28;95780;-74
2023/01/15 01:04:18;;;;;;;10.32;2.15;;;8.20;99.90;;;;;;5016172;28;95384;-74
2023/01/15 01:06:45;;;;;;;10.25;2.05;;;8.20;99.90;;;;;;5000101;28;92372;-74
2023/01/15 01:09:16;;;;;;;8.07;1.38;;;8.20;99.90;;;;;;5018429;28;92436;-74
2023/01/15 01:11:42;;;;;;;11.40;2.10;;;8.20;99.90;;;;;;4999798;28;95585;-75
2023/01/15 01:14:11;;;;;;;9.55;1.80;;;8.20;99.90;;;;;;4999644;28;95470;-75
2023/01/15 01:16:40;;;;;;;10.75;1.70;;;8.20;99.90;;;;;;5015507;28;95492;-75
2023/01/15 01:19:10;;;;;;;10.10;1.30;;;8.20;99.90;;;;;;4983504;28;92495;-75
2023/01/15 01:21:39;;;;;;;8.05;1.60;;;8.10;99.90;;;;;;5016340;28;93203;-75
2023/01/15 01:24:07;;;;;;;7.53;1.70;;;8.10;99.90;;;;;;5017140;28;92953;-74
2023/01/15 01:26:34;;;;;;;6.00;1.70;;;8.10;99.90;;;;;;5016434;28;92412;-75
2023/01/15 01:29:03;;;;;;;8.80;1.95;;;8.10;99.90;;;;;;5015868;28;92462;-75
2023/01/15 01:31:32;;;;;;;8.95;1.75;;;8.10;99.90;;;;;;5017651;28;93569;-75
2023/01/15 01:33:59;;;;;;;8.80;1.95;;;8.10;99.90;;;;;;5015594;28;96322;-75
2023/01/15 01:36:34;;;;;;;7.32;1.63;;;8.10;99.90;;;;;;5016436;28;92894;-74
2023/01/15 01:39:02;;;;;;;13.10;1.48;;;8.10;99.90;;;;;;5049901;27;92442;-74
2023/01/15 01:41:31;;;;;;;10.23;1.52;;;8.10;99.90;;;;;;5014375;28;98050;-74
2023/01/15 01:44:04;;;;;;;10.32;1.83;;;8.10;99.90;;;;;;5015733;28;98042;-75
2023/01/15 01:46:34;;;;;;;6.47;1.40;;;8.10;99.90;;;;;;5016040;28;92516;-75
2023/01/15 01:49:11;;;;;;;9.32;2.05;;;8.10;99.90;;;;;;5049809;27;92476;-75
2023/01/15 01:51:43;;;;;;;6.75;1.85;;;8.10;99.90;;;;;;5015818;28;95817;-75
2023/01/15 01:54:13;;;;;;;4.90;1.58;;;8.10;99.90;;;;;;5049276;27;95373;-75
2023/01/15 01:56:41;;;;;;;17.58;2.08;;;8.10;99.90;;;;;;5017110;28;92460;-75
2023/01/15 01:59:08;;;;;;;7.55;1.73;;;8.10;99.90;;;;;;4999690;28;92088;-75
2023/01/15 02:01:35;;;;;;;8.57;2.10;;;8.10;99.90;;;;;;5015687;28;95299;-75
2023/01/15 02:04:06;;;;;;;6.45;1.65;;;8.10;99.90;;;;;;5016959;28;92987;-75
2023/01/15 02:06:34;;;;;;;6.65;1.42;;;8.10;99.90;;;;;;4997884;28;94868;-75
2023/01/15 02:09:01;;;;;;;9.35;1.42;;;8.00;99.90;;;;;;5015647;28;92485;-75
2023/01/15 02:11:30;;;;;;;7.93;2.35;;;8.00;99.90;;;;;;4998556;28;96139;-75
2023/01/15 02:14:06;;;;;;;6.82;1.60;;;8.00;99.90;;;;;;5049092;27;94104;-75
2023/01/15 02:16:47;;;;;;;9.73;1.60;;;8.00;99.90;;;;;;5016174;28;92496;-75
2023/01/15 02:20:12;;;;;;;13.35;1.55;;;7.90;99.90;;;;;;5015331;28;92987;-75
2023/01/15 02:23:18;;;;;;;6.28;1.48;;;7.90;99.90;;;;;;5000263;28;94442;-75
2023/01/15 02:26:04;;;;;;;7.50;1.15;;;8.00;99.90;;;;;;5015693;28;95357;-75
2023/01/15 02:28:35;;;;;;;7.75;2.17;;;7.90;99.90;;;;;;5015161;28;92518;-74
2023/01/15 02:31:13;;;;;;;10.63;1.60;;;7.90;99.90;;;;;;5015072;28;92621;-75
2023/01/15 02:33:52;;;;;;;8.52;1.70;;;7.90;99.90;;;;;;5014030;28;98305;-75
2023/01/15 02:36:23;;;;;;;5.60;1.60;;;7.90;99.90;;;;;;5014883;28;96795;-74
2023/01/15 02:38:57;;;;;;;11.80;1.73;;;7.90;99.90;;;;;;5015345;28;92411;-74
2023/01/15 02:41:33;;;;;;;5.35;1.85;;;7.90;99.90;;;;;;5015096;28;93050;-73
2023/01/15 02:44:03;;;;;;;6.05;1.60;;;7.90;99.90;;;;;;4998273;28;95113;-73
2023/01/15 02:46:34;;;;;;;10.77;2.00;;;7.90;99.90;;;;;;5013623;28;95791;-74
2023/01/15 02:49:07;;;;;;;6.05;1.55;;;7.90;99.90;;;;;;5015221;28;92466;-74
2023/01/15 02:51:44;;;;;;;7.30;1.20;;;7.80;99.90;;;;;;5016590;28;91705;-74
2023/01/15 02:54:19;;;;;;;10.43;1.48;;;7.80;99.90;;;;;;5014734;28;95235;-74
2023/01/15 02:56:48;;;;;;;6.35;1.60;;;7.80;99.90;;;;;;5014840;28;95704;-74
2023/01/15 02:59:31;;;;;;;9.20;1.70;;;7.80;99.90;;;;;;5013660;28;94830;-74
2023/01/15 03:02:01;;;;;;;;;;;7.80;99.90;;;;;;5015388;28;92511;-73
2023/01/15 03:04:51;;;;;;;8.38;1.90;;;7.80;99.90;;;;;;5015515;28;96015;-74
2023/01/15 03:07:29;;;;;;;12.55;2.38;;;7.80;99.90;;;;;;5016002;28;92399;-74
2023/01/15 03:09:58;;;;;;;9.75;1.80;;;7.80;99.90;;;;;;4998445;28;92453;-74
2023/01/15 03:12:28;;;;;;;8.00;1.67;;;7.80;99.90;;;;;;5014563;28;92550;-75
2023/01/15 03:14:57;;;;;;;9.00;2.08;;;7.80;99.90;;;;;;5014707;28;95397;-75
2023/01/15 03:17:40;;;;;;;9.55;1.65;;;7.80;99.90;;;;;;4997990;28;95303;-75
2023/01/15 03:20:19;;;;;;;11.88;2.08;;;7.90;99.90;;;;;;5048443;27;92378;-73
2023/01/15 03:22:50;;;;;;;8.00;1.88;;;7.90;99.90;;;;;;5014644;28;92470;-74
2023/01/15 03:25:25;;;;;;;9.77;1.77;;;7.80;99.90;;;;;;5012793;28;98115;-74
2023/01/15 03:28:00;;;;;;;11.23;1.85;;;7.90;99.90;;;;;;5014181;28;97689;-74
2023/01/15 03:30:28;;;;;;;9.05;2.03;;;7.90;99.90;;;;;;5015386;28;92379;-74
2023/01/15 03:32:55;;;;;;;7.82;1.73;;;7.80;99.90;;;;;;5015703;28;92530;-74
2023/01/15 03:35:42;;;;;;;13.27;2.15;;;7.80;99.90;;;;;;4997251;28;96014;-75
2023/01/15 03:38:12;;;;;;;12.32;2.25;;;7.90;99.90;;;;;;5013938;28;95342;-75
2023/01/15 03:40:49;;;;;;;11.25;2.40;;;7.80;99.90;;;;;;5014189;28;92395;-75
2023/01/15 03:43:41;;;;;;;9.50;1.70;;;7.70;99.90;;;;;;5014354;28;91761;-75
2023/01/15 03:46:20;;;;;;;8.05;1.85;;;7.70;99.90;;;;;;5014046;28;95503;-74
2023/01/15 03:49:09;;;;;;;8.18;1.60;;;7.70;99.90;;;;;;5015731;28;93015;-74
2023/01/15 03:51:43;;;;;;;7.78;1.50;;;7.70;99.90;;;;;;5046801;27;95323;-75
2023/01/15 03:54:24;;;;;;;10.50;2.20;;;7.60;99.90;;;;;;4997796;28;92466;-74
2023/01/15 03:57:19;;;;;;;6.75;1.45;;;7.60;99.90;;;;;;5014194;28;94518;-75
2023/01/15 03:59:57;;;;;;;11.07;2.00;;;7.60;99.90;;;;;;5017261;28;95383;-75
2023/01/15 04:02:27;;;;;;;6.65;2.03;;;7.60;99.90;;;;;;5051284;27;92485;-74
2023/01/15 04:04:56;;;;;;;14.45;1.70;;;7.60;99.90;;;;;;5018082;28;92726;-74
2023/01/15 04:07:25;;;;;;;8.48;1.63;;;7.60;99.90;;;;;;5016904;28;94567;-74
2023/01/15 04:09:52;;;;;;;9.75;2.03;;;7.50;99.90;;;;;;5017702;28;95224;-75
2023/01/15 04:12:20;;;;;;;9.32;1.75;;;7.50;99.90;;;;;;5017617;28;92622;-75
2023/01/15 04:14:47;;;;;;;5.75;2.03;;;7.50;99.90;;;;;;5018921;28;92531;-75
2023/01/15 04:17:17;;;;;;;13.02;2.38;;;7.50;99.90;;;;;;4999783;28;97653;-75
2023/01/15 04:19:44;;;;;;;8.20;1.95;;;7.50;99.90;;;;;;5050733;27;96972;-75
2023/01/15 04:22:12;;;;;;;8.10;1.80;;;7.40;99.90;;;;;;5017549;28;92487;-75
2023/01/15 04:24:39;;;;;;;7.45;1.65;;;7.40;99.90;;;;;;5017310;28;92510;-75
2023/01/15 04:27:06;;;;;;;6.53;1.88;;;7.40;99.90;;;;;;5017273;28;93184;-75
2023/01/15 04:29:33;;;;;;;7.35;1.95;;;7.40;99.90;;;;;;5017901;28;93095;-75
2023/01/15 04:32:01;;;;;;;13.77;2.75;;;7.50;99.90;;;;;;5001024;28;92816;-75
2023/01/15 04:34:28;;;;;;;7.95;1.70;;;7.40;99.90;;;;;;5018579;28;91760;-75
2023/01/15 04:36:56;;;;;;;10.95;1.95;;;7.50;99.90;;;;;;5017093;28;93220;-75
2023/01/15 04:39:23;;;;;;;9.70;1.70;;;7.50;99.90;;;;;;5016967;28;97920;-75
2023/01/15 04:44:36;;;;;;;10.20;1.85;;;7.50;99.90;;;;;;5018330;28;92430;-75
2023/01/15 04:47:03;;;;;;;8.63;1.95;;;7.50;99.90;;;;;;5016544;28;93324;-75
2023/01/15 04:49:31;;;;;;;10.10;2.20;;;7.50;99.90;;;;;;5016848;28;92896;-75
2023/01/15 04:51:58;;;;;;;8.38;1.88;;;7.60;99.90;;;;;;5017061;28;92439;-75
2023/01/15 04:54:25;;;;;;;11.65;2.60;;;7.60;99.90;;;;;;5000212;28;92469;-75
2023/01/15 04:56:53;;;;;;;7.93;1.90;;;7.60;99.90;;;;;;5016783;28;93362;-75
2023/01/15 04:59:22;;;;;;;11.35;2.05;;;7.60;99.90;;;;;;5018280;28;92930;-75
2023/01/15 05:01:50;;;;;;;7.18;1.77;;;7.60;99.90;;;;;;5017857;28;92346;-75
2023/01/15 05:04:30;;;;;;;12.02;2.00;;;7.60;99.90;;;;;;5017843;28;92485;-75
2023/01/15 05:06:57;;;;;;;8.95;1.65;;;7.60;99.90;;;;;;5015223;28;98208;-75
2023/01/15 05:09:24;;;;;;;8.95;2.00;;;7.50;99.90;;;;;;5016631;28;95297;-75
2023/01/15 05:11:51;;;;;;;11.52;1.88;;;7.50;99.90;;;;;;5017894;28;92507;-75
2023/01/15 05:14:18;;;;;;;12.10;1.88;;;7.50;99.90;;;;;;5018147;28;92500;-74
2023/01/15 05:16:45;;;;;;;10.38;2.38;;;7.60;99.90;;;;;;5016598;28;97363;-75
2023/01/15 05:19:12;;;;;;;9.75;1.88;;;7.50;99.90;;;;;;5017867;28;92452;-75
2023/01/15 05:21:41;;;;;;;11.15;2.10;;;7.40;99.90;;;;;;4999666;28;92525;-75
2023/01/15 05:24:15;;;;;;;8.25;2.22;;;7.40;99.90;;;;;;5018286;28;91652;-75
2023/01/15 05:26:43;;;;;;;11.35;1.63;;;7.40;99.90;;;;;;5017360;28;93390;-75
2023/01/15 05:29:11;;;;;;;10.95;2.17;;;7.40;99.90;;;;;;5015654;28;95964;-74
2023/01/15 05:31:38;;;;;;;15.32;2.63;;;7.30;99.90;;;;;;5014879;28;94787;-75
2023/01/15 05:34:05;;;;;;;7.35;1.95;;;7.30;99.90;;;;;;5017605;28;93089;-75
2023/01/15 05:36:32;;;;;;;6.10;1.38;;;7.20;99.90;;;;;;5017295;28;93292;-75
2023/01/15 05:39:00;;;;;;;10.32;1.48;;;7.20;99.90;;;;;;5016281;28;93071;-75
2023/01/15 05:44:20;;;;;;;8.68;1.83;;;7.10;99.90;;;;;;5016108;28;92445;-75
2023/01/15 05:46:48;;;;;;;4.55;1.42;;;7.10;99.90;;;;;;5015728;28;95698;-75
2023/01/15 05:49:19;;;;;;;7.70;1.98;;;7.00;99.90;;;;;;5016565;28;92703;-75
2023/01/15 05:51:46;;;;;;;7.82;1.45;;;7.00;99.90;;;;;;5017143;28;92652;-75
2023/01/15 05:54:17;;;;;;;6.93;2.05;;;7.00;99.90;;;;;;5017355;28;92430;-75
2023/01/15 05:56:44;;;;;;;14.95;2.15;;;6.90;99.90;;;;;;5015725;28;95836;-75
2023/01/15 05:59:12;;;;;;;9.55;1.67;;;6.80;99.90;;;;;;5016988;28;95322;-75
2023/01/15 06:01:40;;;;;;;7.18;1.48;;;6.80;99.90;;;;;;5015973;28;92898;-75
2023/01/15 06:04:08;;;;;;;7.68;1.80;;;6.80;99.90;;;;;;5016966;28;92537;-75
2023/01/15 06:06:35;;;;;;;8.50;1.55;;;6.80;99.90;;;;;;5017213;28;93223;-75
2023/01/15 06:09:03;;;;;;;7.18;1.75;;;6.70;99.90;;;;;;5015744;28;93025;-75
2023/01/15 06:11:31;;;;;;;12.32;1.77;;;6.70;99.90;;;;;;5015736;28;92593;-75
2023/01/15 06:13:58;;;;;;;7.53;1.92;;;6.70;99.90;;;;;;5017490;28;92149;-75
2023/01/15 06:16:26;;;;;;;10.68;1.95;;;6.70;99.90;;;;;;5016657;28;93287;-75
2023/01/15 06:18:53;;;;;;;8.98;2.53;;;6.70;99.90;;;;;;5015167;28;92940;-74
2023/01/15 06:21:20;;;;;;;8.73;2.00;;;6.60;99.90;;;;;;5015729;28;95618;-74
2023/01/15 06:23:47;;;;;;;8.60;1.83;;;6.60;99.90;;;;;;5015233;28;92577;-73
2023/01/15 06:26:16;;;;;;;6.88;2.17;;;6.70;99.90;;;;;;4998748;28;94244;-75
2023/01/15 06:28:44;;;;;;;9.63;1.77;;;6.60;99.90;;;;;;5015098;28;92749;-75
2023/01/15 06:31:15;;;;;;;8.20;1.40;;;6.60;99.90;;;;;;5016349;28;92529;-74
2023/01/15 06:33:42;;;;;;;11.35;2.10;;;6.60;99.90;;;;;;5016628;28;92435;-74
2023/01/15 06:36:12;;;;;;;9.35;2.08;;;6.50;99.90;;;;;;5016659;28;93114;-74
2023/01/15 06:38:39;;;;;;;7.97;1.58;;;6.60;99.90;;;;;;5016766;28;92837;-74
2023/01/15 06:49:35;;;;;;;17.02;3.38;;;6.50;99.90;;;;;;5016428;28;95250;-74
2023/01/15 06:52:04;;;;;;;10.60;2.10;;;6.50;99.90;;;;;;5016058;28;92436;-74
2023/01/15 06:54:31;;;;;;;12.02;2.42;;;6.40;99.90;;;;;;5014960;28;92861;-74
2023/01/15 06:56:58;;;;;;;11.43;2.15;;;6.40;99.90;;;;;;5014617;28;93524;-74
2023/01/15 06:59:25;;;;;;;11.52;1.95;;;6.40;99.90;;;;;;5016181;28;92940;-74
2023/01/15 07:01:52;;;;;;;6.80;1.45;;;6.40;99.90;;;;;;5016086;28;92456;-74
2023/01/15 07:04:19;;;;;;;5.90;1.35;;;6.40;99.90;;;;;;5015438;28;91705;-74
2023/01/15 07:06:46;;;;;;;5.88;1.73;;;6.40;99.90;;;;;;5015621;28;96279;-74
2023/01/15 07:09:13;;;;;;;9.77;1.38;;;6.40;99.90;;;;;;5016155;28;92850;-74
2023/01/15 07:11:50;;;;;;;6.72;1.63;;;6.40;99.90;;;;;;5013908;28;95035;-74
2023/01/15 07:14:16;;;;;;;6.25;1.35;;;6.40;99.90;;;;;;5016290;28;93039;-74
2023/01/15 07:16:44;;;;;;;6.05;1.17;;;6.30;99.90;;;;;;5014796;28;93660;-74
2023/01/15 07:19:11;;;;;;;6.63;1.38;;;6.30;99.90;;;;;;5014065;28;95594;-74
2023/01/15 07:21:38;;;;;;;4.97;1.58;;;6.30;99.90;;;;;;5016126;28;92356;-74
2023/01/15 07:24:06;;;;;;;10.07;2.00;;;6.30;99.90;;;;;;5014471;28;92703;-75
2023/01/15 07:26:34;;;;;;;6.47;2.13;;;6.20;99.90;;;;;;5014221;28;95700;-75
2023/01/15 07:29:01;;;;;;;9.43;1.80;;;6.20;99.90;;;;;;5015809;28;93015;-75
2023/01/15 07:31:28;;;;;;;6.22;1.30;;;6.20;99.90;;;;;;5013598;28;94252;-75
2023/01/15 07:33:56;;;;;;;15.00;3.03;;;6.20;99.90;;;;;;4980894;28;92369;-75
2023/01/15 07:36:23;;;;;;;12.45;2.28;;;6.20;99.90;;;;;;4996285;28;98685;-75
2023/01/15 07:38:51;;;;;;;11.13;2.78;;;6.20;99.90;;;;;;5015353;28;95501;-74
2023/01/15 07:49:47;;;;;;;9.43;1.65;;;6.10;99.90;;;;;;5015713;28;92853;-74
2023/01/15 07:52:16;;;;;;;6.65;1.48;;;6.10;99.90;;;;;;5014727;28;93071;-75
2023/01/15 07:54:45;;;;;;;8.07;1.83;;;6.10;99.90;;;;;;5014434;28;91697;-75
2023/01/15 07:57:14;;;;;;;7.63;1.98;;;6.20;99.90;;;;;;5013775;28;96023;-75
2023/01/15 07:59:41;;;;;;;7.45;1.83;;;6.20;99.90;;;;;;5015090;28;100878;-75
2023/01/15 08:02:08;;;;;;;6.05;1.20;;;6.20;99.90;;;;;;4996239;28;95165;-74
2023/01/15 08:04:35;;;;;;;6.35;1.70;;;6.20;99.90;;;;;;5015360;28;92430;-74
2023/01/15 08:07:03;;;;;;;8.30;1.67;;;6.20;99.90;;;;;;4997247;28;95800;-74
2023/01/15 08:09:31;;;;;;;9.32;1.65;;;6.20;99.90;;;;;;5013741;28;94579;-74
2023/01/15 08:17:35;;;;;;;9.15;2.47;;;6.30;99.90;;;;;;5015124;28;93310;-74
2023/01/15 08:20:03;;;;;;;7.22;1.70;;;6.30;99.90;;;;;;4997298;28;95536;-75
2023/01/15 08:22:31;;;;;;;11.63;2.13;;;6.30;99.90;;;;;;4997480;28;92482;-75
2023/01/15 08:24:58;;;;;;;5.65;1.40;;;6.40;99.90;;;;;;5015087;28;92479;-75
2023/01/15 08:27:25;;;;;;;5.95;1.92;;;6.40;99.90;;;;;;5013707;28;95675;-75
2023/01/15 08:29:52;;;;;;;5.20;1.67;;;6.50;99.90;;;;;;5014689;28;95431;-74
2023/01/15 08:32:19;;;;;;;7.70;1.65;;;6.50;99.90;;;;;;5013670;28;92588;-75
2023/01/15 08:34:46;;;;;;;7.00;1.65;;;6.50;99.90;;;;;;5015250;28;92390;-75
2023/01/15 08:37:13;;;;;;;6.32;1.10;;;6.50;99.90;;;;;;4996924;28;93755;-75
2023/01/15 08:39:40;;;;;;;11.10;2.20;;;6.50;99.90;;;;;;5013421;28;95751;-75
2023/01/15 08:42:07;;;;;;;5.47;1.27;;;6.60;99.90;;;;;;5013515;28;93138;-75
2023/01/15 08:44:34;;;;;;;7.85;1.33;;;6.60;99.90;;;;;;5000123;28;91674;-75
2023/01/15 08:47:01;;;;;;;5.72;1.30;;;6.60;99.90;;;;;;5000337;28;93259;-75
2023/01/15 08:49:29;;;;;;;5.05;1.33;;;6.70;99.90;;;;;;5016803;28;95408;-75
2023/01/15 08:51:55;;;;;;;4.03;1.20;;;6.70;99.90;;;;;;5015990;28;94916;-75
2023/01/15 08:54:25;;;;;;;7.55;1.38;;;6.80;99.90;;;;;;5016856;28;92426;-75
2023/01/15 08:56:52;;;;;;;6.85;2.05;;;6.90;99.90;;;;;;5016860;28;93287;-75
2023/01/15 08:59:19;;;;;;;8.35;1.80;;;6.90;99.90;;;;;;5016231;28;96070;-75
2023/01/15 09:01:46;;;;;;;12.60;2.45;;;7.00;99.90;;;;;;5000449;28;92460;-75
2023/01/15 09:04:15;;;;;;;7.20;1.80;;;7.10;99.90;;;;;;5017861;28;92398;-74
2023/01/15 09:06:43;;;;;;;7.40;1.70;;;7.30;99.90;;;;;;5016650;28;93437;-74
2023/01/15 09:09:10;;;;;;;9.68;1.70;;;7.50;99.90;;;;;;5017998;28;92914;-74
2023/01/15 09:11:41;;;;;;;7.20;2.13;;;7.60;99.90;;;;;;5017955;28;92302;-74
2023/01/15 09:14:10;;;;;;;4.80;1.17;;;7.70;99.90;;;;;;5017884;28;92460;-74
2023/01/15 09:16:57;;;;;;;7.45;1.48;;;7.70;99.90;;;;;;5016644;28;95618;-74
2023/01/15 09:19:24;;;;;;;8.70;1.88;;;7.60;99.90;;;;;;5016290;28;95433;-74
2023/01/15 09:21:51;;;;;;;5.88;1.90;;;7.60;99.90;;;;;;5016692;28;92523;-74
2023/01/15 09:24:18;;;;;;;6.97;1.55;;;7.60;99.90;;;;;;5016495;28;92981;-74
2023/01/15 09:26:45;;;;;;;6.43;1.58;;;7.60;99.90;;;;;;4999646;28;95908;-74
2023/01/15 09:29:12;;;;;;;6.20;1.40;;;7.60;99.90;;;;;;5016251;28;93378;-74
2023/01/15 09:31:39;;;;;;;4.95;1.30;;;7.60;99.90;;;;;;5015693;28;93615;-74
2023/01/15 09:34:06;;;;;;;4.50;1.25;;;7.60;99.90;;;;;;5016549;28;91933;-74
2023/01/15 09:36:34;;;;;;;3.95;1.27;;;7.60;99.90;;;;;;5016215;28;93198;-74
2023/01/15 09:39:03;;;;;;;4.70;1.15;;;7.50;99.90;;;;;;5017120;28;92449;-74
2023/01/15 09:42:07;;;;;;;6.40;1.45;;;7.40;99.90;;;;;;5014969;28;94910;-74
2023/01/15 09:45:08;;;;;;;5.55;1.17;;;7.30;99.90;;;;;;5017579;28;92792;-74
2023/01/15 09:48:06;;;;;;;3.97;0.90;;;7.10;99.90;;;;;;5015935;28;95838;-74
2023/01/15 09:50:55;;;;;;;4.85;1.30;;;6.90;99.90;;;;;;5008838;28;93291;-75
2023/01/15 09:53:36;;;;;;;4.93;1.17;;;6.80;99.90;;;;;;5017441;28;92951;-74
2023/01/15 09:56:04;;;;;;;5.82;1.17;;;6.90;99.90;;;;;;5015914;28;93325;-74
2023/01/15 09:58:39;;;;;;;4.32;1.08;;;6.90;99.90;;;;;;5016962;28;93173;-74
2023/01/15 10:01:12;;;;;;;4.97;0.95;;;7.00;99.90;;;;;;5016383;28;91952;-74
2023/01/15 10:03:42;;;;;;;;;;;7.00;99.90;;;;;;5018112;28;92559;-74
2023/01/15 10:06:29;;;;;;;4.50;1.15;;;7.00;99.90;;;;;;5017724;28;92467;-74
2023/01/15 10:09:08;;;;;;;5.57;1.45;;;7.10;99.90;;;;;;5014646;28;95936;-74
2023/01/15 10:15:11;;;;;;;6.80;1.77;;;7.10;99.90;;;;;;5015288;28;92395;-74
2023/01/15 10:17:47;;;;;;;2.47;1.23;;;7.20;99.90;;;;;;5015438;28;92599;-74
2023/01/15 10:20:41;;;;;;;11.02;1.50;;;7.20;99.90;;;;;;5015168;28;93210;-74
2023/01/15 10:23:33;;;;;;;3.90;1.10;;;7.20;99.90;;;;;;5015259;28;95648;-74
2023/01/15 10:26:22;;;;;;;4.10;1.17;;;7.30;99.90;;;;;;5015668;28;92426;-74
2023/01/15 10:29:00;;;;;;;7.20;1.75;;;7.20;99.90;;;;;;5017487;28;91658;-74
2023/01/15 10:31:47;;;;;;;3.03;1.20;;;7.20;99.90;;;;;;5014711;28;95785;-74
2023/01/15 10:34:55;;;;;;;4.53;1.25;;;7.20;99.90;;;;;;5016559;28;93790;-74
2023/01/15 10:37:54;;;;;;;4.65;1.23;;;7.30;99.90;;;;;;5015233;28;95013;-75
2023/01/15 10:40:59;;;;;;;7.18;1.75;;;7.30;99.90;;;;;;4993539;28;92969;-75
2023/01/15 10:43:49;;;;;;;6.35;1.40;;;7.50;99.90;;;;;;5014814;28;95814;-75
2023/01/15 10:46:26;;;;;;;5.07;1.10;;;7.60;99.90;;;;;;5015181;28;92991;-75
2023/01/15 10:48:55;;;;;;;7.22;1.60;;;7.60;99.90;;;;;;5016844;28;92554;-75
2023/01/15 10:51:25;;;;;;;2.47;0.90;;;7.50;99.90;;;;;;5014876;28;92451;-75
2023/01/15 10:53:59;;;;;;;5.75;1.27;;;7.50;99.90;;;;;;5016124;28;93323;-75
2023/01/15 10:56:43;;;;;;;3.22;0.93;;;7.50;99.90;;;;;;4998416;28;95639;-75
2023/01/15 10:59:21;;;;;;;4.45;1.30;;;7.50;99.90;;;;;;5016508;28;92436;-75
2023/01/15 11:01:54;;;;;;;10.35;2.33;;;7.50;99.90;;;;;;5016478;28;92976;-75
2023/01/15 11:04:22;;;;;;;6.10;1.60;;;7.60;99.90;;;;;;5014431;28;94748;-75
2023/01/15 11:06:49;;;;;;;8.93;1.60;;;7.60;99.90;;;;;;5014534;28;95328;-75
2023/01/15 11:09:22;;;;;;;4.82;1.30;;;7.60;99.90;;;;;;5014814;28;92482;-75
2023/01/15 11:20:17;;;;;;;6.57;1.58;;;7.80;99.90;;;;;;5016417;28;92819;-75
2023/01/15 11:22:44;;;;;;;5.00;1.27;;;8.10;99.90;;;;;;5031816;27;91641;-75
2023/01/15 11:25:11;;;;;;;7.30;1.63;;;8.20;99.90;;;;;;4997741;28;104747;-75
2023/01/15 11:27:38;;;;;;;5.47;1.20;;;8.40;99.90;;;;;;5014094;28;92981;-75
2023/01/15 11:30:25;;;;;;;7.55;1.90;;;8.50;99.90;;;;;;5012774;28;94965;-74
2023/01/15 11:32:57;;;;;;;6.28;1.63;;;8.70;99.90;;;;;;5015735;28;92474;-74
2023/01/15 11:35:25;;;;;;;6.38;1.83;;;8.60;99.90;;;;;;5014019;28;93301;-75
2023/01/15 11:38:03;;;;;;;12.05;1.70;;;8.60;99.90;;;;;;5014225;28;93429;-74
2023/01/15 11:40:30;;;;;;;10.07;1.67;;;8.80;99.90;;;;;;5015537;28;92452;-74
2023/01/15 11:51:46;;;;;;;7.80;1.63;;;9.30;99.90;;;;;;5014111;28;92414;-75
2023/01/15 11:54:14;;;;;;;7.53;1.80;;;9.50;99.90;;;;;;5015784;28;92565;-75
2023/01/15 11:56:44;;;;;;;5.22;1.63;;;9.50;99.90;;;;;;5013743;28;95534;-75
2023/01/15 11:59:16;;;;;;;8.68;1.90;;;9.50;99.90;;;;;;5013822;28;97915;-74
2023/01/15 12:02:03;;;;;;;10.52;1.70;;;9.50;99.90;;;;;;5014008;28;92593;-75
2023/01/15 12:04:45;;;;;;;5.97;1.70;;;9.40;99.90;;;;;;5013786;28;92510;-74
2023/01/15 12:07:13;;;;;;;10.75;2.40;;;9.30;99.90;;;;;;5014015;28;93153;-74
2023/01/15 12:09:56;;;;;;;7.60;1.75;;;9.20;99.90;;;;;;5013580;28;92937;-74
2023/01/15 12:12:41;;;;;;;11.82;1.83;;;9.30;99.90;;;;;;5031038;28;92969;-74
2023/01/15 12:15:28;;;;;;;8.38;1.85;;;9.30;99.90;;;;;;5034356;28;91765;-75
2023/01/15 12:18:28;;;;;;;8.00;1.70;;;9.40;99.90;;;;;;5035860;27;93377;-74
2023/01/15 12:21:09;;;;;;;6.05;1.40;;;9.50;99.90;;;;;;5033897;28;93276;-75
2023/01/15 12:24:06;;;;;;;8.15;1.80;;;9.60;99.90;;;;;;5019367;28;94857;-74
2023/01/15 12:26:47;;;;;;;7.43;1.88;;;9.60;99.90;;;;;;4996391;28;92711;-74
2023/01/15 12:29:29;;;;;;;7.00;1.60;;;9.50;99.90;;;;;;5020437;28;95982;-74
2023/01/15 12:32:06;;;;;;;6.10;1.70;;;9.50;99.90;;;;;;5037144;28;93003;-75
2023/01/15 12:34:50;;;;;;;5.60;1.70;;;9.40;99.90;;;;;;5037521;28;92425;-74
2023/01/15 12:37:33;;;;;;;5.53;1.52;;;9.30;99.90;;;;;;5038788;28;92366;-74
2023/01/15 12:40:17;;;;;;;8.57;1.90;;;9.20;99.90;;;;;;5038485;28;93186;-74
2023/01/15 12:45:51;;;;;;;12.43;2.08;;;9.30;99.90;;;;;;5038587;27;92398;-74
2023/01/15 12:48:38;;;;;;;7.63;1.45;;;9.40;99.90;;;;;;5038888;28;92400;-74
2023/01/15 12:51:09;;;;;;;6.22;1.67;;;9.50;99.90;;;;;;5035570;28;95723;-74
2023/01/15 12:53:52;;;;;;;8.02;2.13;;;9.50;99.90;;;;;;5038297;28;95447;-74
2023/01/15 12:56:29;;;;;;;8.00;1.60;;;9.60;99.90;;;;;;5038515;28;92458;-74
2023/01/15 12:59:24;;;;;;;4.22;1.70;;;9.70;99.90;;;;;;5037282;28;92399;-74
2023/01/15 13:02:08;;;;;;;6.75;1.77;;;9.80;99.90;;;;;;5036803;28;93245;-74
2023/01/15 13:04:49;;;;;;;6.70;1.35;;;9.90;99.90;;;;;;5038041;28;92422;-75
2023/01/15 13:07:19;;;;;;;11.20;2.22;;;9.90;99.90;;;;;;5036927;28;92516;-74
2023/01/15 13:09:59;;;;;;;8.02;1.90;;;9.90;99.90;;;;;;5020025;28;91774;-74
2023/01/15 13:12:28;;;;;;;8.05;1.55;;;9.90;99.90;;;;;;5019743;28;96227;-74
2023/01/15 13:14:55;;;;;;;8.60;1.80;;;9.80;99.90;;;;;;5036478;28;92939;-74
2023/01/15 13:18:14;;;;;;;9.73;2.28;;;9.80;99.90;;;;;;5036987;28;94721;-74
2023/01/15 13:20:53;;;;;;;7.45;2.17;;;9.80;99.90;;;;;;4975785;28;92550;-74
2023/01/15 13:23:54;;;;;;;14.07;1.80;;;9.60;99.90;;;;;;4975261;28;94179;-74
2023/01/15 13:26:37;;;;;;;7.65;1.60;;;9.70;99.90;;;;;;4958759;28;95970;-74
2023/01/15 13:29:16;;;;;;;4.45;1.38;;;9.60;99.90;;;;;;5018898;27;93147;-74
2023/01/15 13:32:16;;;;;;;5.05;1.15;;;9.60;99.90;;;;;;5036915;28;92890;-74
2023/01/15 13:35:27;;;;;;;8.60;2.17;;;9.60;99.90;;;;;;5035617;28;96423;-74
2023/01/15 13:37:58;;;;;;;6.30;1.30;;;9.60;99.90;;;;;;5030669;28;93042;-74
2023/01/15 13:40:49;;;;;;;6.38;1.45;;;9.50;99.90;;;;;;5037749;28;92491;-74
2023/01/15 13:43:35;;;;;;;10.80;2.17;;;9.50;99.90;;;;;;5037845;28;92538;-74
2023/01/15 13:46:06;;;;;;;9.23;1.67;;;9.40;99.90;;;;;;5017977;28;98127;-74
2023/01/15 13:48:50;;;;;;;8.50;1.52;;;9.40;99.90;;;;;;5036204;28;98160;-74
2023/01/15 13:51:36;;;;;;;6.35;1.50;;;9.50;99.90;;;;;;5019389;28;92500;-74
2023/01/15 13:54:03;;;;;;;8.15;1.75;;;9.40;99.90;;;;;;5037056;28;92442;-74
2023/01/15 13:56:34;;;;;;;6.45;1.60;;;9.20;99.90;;;;;;5036566;27;94034;-74
2023/01/15 13:59:04;;;;;;;11.00;1.70;;;9.10;99.90;;;;;;5039316;27;93959;-74
2023/01/15 14:01:36;;;;;;;9.27;2.22;;;9.10;99.90;;;;;;5057721;27;92332;-74
2023/01/15 14:04:10;;;;;;;8.77;1.95;;;9.00;99.90;;;;;;5057211;27;92438;-74
2023/01/15 14:06:46;;;;;;;6.93;1.67;;;8.90;99.90;;;;;;5057561;27;93153;-74
2023/01/15 14:09:22;;;;;;;5.65;1.63;;;8.70;99.90;;;;;;5057498;27;93162;-74
2023/01/15 14:12:07;;;;;;;3.70;1.50;;;8.60;99.90;;;;;;5056473;27;94840;-75
2023/01/15 14:14:58;;;;;;;6.15;1.88;;;8.40;99.90;;;;;;5057737;27;92489;-75
2023/01/15 14:17:56;;;;;;;3.28;1.15;;;8.20;99.90;;;;;;5056002;27;95888;-74
2023/01/15 14:20:43;;;;;;;4.53;1.15;;;8.10;99.90;;;;;;5057332;27;93385;-75
2023/01/15 14:23:37;;;;;;;3.53;1.00;;;8.00;99.90;;;;;;5057517;27;92328;-75
2023/01/15 14:26:26;;;;;;;3.67;0.93;;;7.90;99.90;;;;;;5055521;27;92500;-75